createdAt,value
2019-02-18T00:00:29.053Z,46.30
2019-02-18T00:02:58.173Z,50.07
2019-02-18T00:05:27.264Z,40.47
2019-02-18T00:07:56.326Z,46.10
2019-02-18T00:10:41.530Z,45.57
2019-02-18T00:13:10.586Z,43.20
2019-02-18T00:15:39.657Z,43.37
2019-02-18T00:18:15.606Z,45.77
2019-02-18T00:20:44.661Z,48.40
2019-02-18T00:23:13.726Z,45.83
2019-02-18T00:25:42.810Z,53.70
2019-02-18T00:28:11.890Z,48.53
2019-02-18T00:30:41.524Z,44.97
2019-02-18T00:33:10.681Z,47.27
2019-02-18T00:35:39.899Z,50.47
2019-02-18T00:38:08.994Z,48.00
2019-02-18T00:40:38.113Z,49.40
2019-02-18T00:43:08.111Z,48.57
2019-02-18T00:45:37.190Z,41.07
2019-02-18T00:48:06.278Z,53.73
2019-02-18T00:50:35.332Z,41.63
2019-02-18T00:53:04.420Z,45.00
2019-02-18T00:55:33.502Z,50.33
2019-02-18T00:58:03.814Z,49.27
2019-02-18T01:00:32.912Z,47.07
2019-02-18T01:03:01.959Z,55.37
2019-02-18T01:05:31.074Z,48.87
2019-02-18T01:08:00.327Z,50.40
2019-02-18T01:10:29.402Z,56.10
2019-02-18T01:12:58.741Z,42.33
2019-02-18T01:15:27.788Z,49.40
2019-02-18T01:17:56.909Z,47.33
2019-02-18T01:20:26.242Z,52.63
2019-02-18T01:22:55.327Z,52.13
2019-02-18T01:25:24.381Z,56.87
2019-02-18T01:27:53.691Z,66.00
2019-02-18T01:30:23.042Z,67.73
2019-02-18T01:32:52.088Z,61.77
2019-02-18T01:35:21.178Z,58.10
2019-02-18T01:37:50.233Z,64.37
2019-02-18T01:40:19.304Z,59.57
2019-02-18T01:42:48.390Z,62.87
2019-02-18T01:45:17.441Z,58.17
2019-02-18T01:47:46.611Z,63.17
2019-02-18T01:50:15.663Z,60.67
2019-02-18T01:52:44.726Z,62.87
2019-02-18T01:55:13.861Z,50.37
2019-02-18T01:57:42.916Z,57.70
2019-02-18T02:00:15.115Z,63.77
2019-02-18T02:02:44.180Z,50.67
2019-02-18T02:05:14.651Z,60.20
2019-02-18T02:07:43.809Z,59.57
2019-02-18T02:10:15.343Z,59.40
2019-02-18T02:12:44.464Z,57.13
2019-02-18T02:15:28.626Z,65.10
2019-02-18T02:17:58.054Z,70.83
2019-02-18T02:20:27.183Z,73.47
2019-02-18T02:22:56.268Z,67.30
2019-02-18T02:25:25.362Z,62.07
2019-02-18T02:27:54.458Z,68.30
2019-02-18T02:30:23.510Z,63.23
2019-02-18T02:32:52.630Z,62.43
2019-02-18T02:35:21.783Z,63.20
2019-02-18T02:37:50.918Z,56.30
2019-02-18T02:40:20.102Z,55.70
2019-02-18T02:42:49.496Z,67.50
2019-02-18T02:45:18.581Z,62.83
2019-02-18T02:47:47.782Z,63.83
2019-02-18T02:50:16.832Z,60.70
2019-02-18T02:52:45.914Z,67.20
2019-02-18T02:55:15.002Z,69.83
2019-02-18T02:57:44.086Z,66.33
2019-02-18T03:00:16.973Z,63.93
2019-02-18T03:02:46.069Z,65.30
2019-02-18T03:05:15.171Z,62.43
2019-02-18T03:07:44.308Z,64.43
2019-02-18T03:10:13.750Z,64.63
2019-02-18T03:12:42.809Z,70.43
2019-02-18T03:15:14.763Z,68.83
2019-02-18T03:18:03.558Z,72.17
2019-02-18T03:20:32.878Z,67.63
2019-02-18T03:23:01.928Z,66.80
2019-02-18T03:25:32.039Z,63.43
2019-02-18T03:28:07.356Z,63.10
2019-02-18T03:30:38.973Z,69.77
2019-02-18T03:33:10.614Z,71.50
2019-02-18T03:35:39.785Z,58.17
2019-02-18T03:38:09.159Z,60.83
2019-02-18T03:40:38.248Z,74.70
2019-02-18T03:43:07.313Z,70.43
2019-02-18T03:45:36.686Z,63.87
2019-02-18T03:48:05.885Z,63.80
2019-02-18T03:50:34.974Z,64.43
2019-02-18T03:53:04.104Z,69.40
2019-02-18T03:55:33.167Z,72.07
2019-02-18T03:58:02.226Z,67.17
2019-02-18T04:00:31.374Z,58.77
2019-02-18T04:03:00.474Z,56.17
2019-02-18T04:05:29.528Z,66.57
2019-02-18T04:07:58.612Z,71.83
2019-02-18T04:10:27.720Z,56.40
2019-02-18T04:12:56.843Z,67.07
2019-02-18T04:15:25.968Z,73.80
2019-02-18T04:17:55.108Z,66.80
2019-02-18T04:20:24.207Z,71.73
2019-02-18T04:22:53.278Z,72.73
2019-02-18T04:25:22.404Z,72.50
2019-02-18T04:27:51.493Z,78.40
2019-02-18T04:30:20.863Z,64.50
2019-02-18T04:32:49.957Z,64.53
2019-02-18T04:35:19.058Z,71.33
2019-02-18T04:37:48.153Z,73.87
2019-02-18T04:40:17.252Z,63.60
2019-02-18T04:42:46.423Z,61.97
2019-02-18T04:45:15.561Z,62.97
2019-02-18T04:47:44.646Z,69.37
2019-02-18T04:50:13.811Z,73.03
2019-02-18T04:52:42.877Z,70.33
2019-02-18T04:55:11.938Z,73.93
2019-02-18T04:57:42.720Z,65.13
2019-02-18T05:00:12.405Z,77.73
2019-02-18T05:02:41.464Z,67.87
2019-02-18T05:05:10.799Z,75.67
2019-02-18T05:07:40.133Z,80.97
2019-02-18T05:10:13.052Z,74.53
2019-02-18T05:12:42.125Z,73.90
2019-02-18T05:15:11.177Z,72.47
2019-02-18T05:17:40.405Z,74.77
2019-02-18T05:20:09.507Z,83.40
2019-02-18T05:22:38.673Z,73.43
2019-02-18T05:25:09.042Z,87.70
2019-02-18T05:27:38.354Z,64.73
2019-02-18T05:30:11.725Z,53.90
2019-02-18T05:32:40.816Z,78.30
2019-02-18T05:35:09.978Z,54.03
2019-02-18T05:37:39.074Z,77.63
2019-02-18T05:40:08.428Z,64.07
2019-02-18T05:42:37.547Z,88.40
2019-02-18T05:45:08.401Z,83.73
2019-02-18T05:47:37.510Z,82.17
2019-02-18T05:50:07.915Z,65.53
2019-02-18T05:52:36.996Z,83.80
2019-02-18T05:55:06.830Z,79.87
2019-02-18T05:57:35.998Z,73.30
2019-02-18T06:00:11.136Z,84.07
2019-02-18T06:02:40.769Z,71.07
2019-02-18T06:05:09.830Z,82.80
2019-02-18T06:07:38.965Z,77.80
2019-02-18T06:10:11.329Z,79.77
2019-02-18T06:12:40.423Z,71.13
2019-02-18T06:15:09.994Z,90.00
2019-02-18T06:17:39.120Z,89.70
2019-02-18T06:20:09.459Z,69.60
2019-02-18T06:22:40.606Z,85.80
2019-02-18T06:25:09.732Z,76.93
2019-02-18T06:27:38.875Z,79.87
2019-02-18T06:30:10.842Z,82.83
2019-02-18T06:32:39.933Z,81.83
2019-02-18T06:35:09.389Z,79.83
2019-02-18T06:37:38.480Z,71.20
2019-02-18T06:40:08.752Z,76.90
2019-02-18T06:42:37.808Z,77.77
2019-02-18T06:45:26.955Z,89.93
2019-02-18T06:47:56.973Z,82.60
2019-02-18T06:50:26.077Z,81.80
2019-02-18T06:52:55.129Z,78.33
2019-02-18T06:55:24.267Z,86.33
2019-02-18T06:58:13.142Z,72.57
2019-02-18T07:00:43.873Z,80.73
2019-02-18T07:03:26.642Z,69.50
2019-02-18T07:06:03.225Z,79.03
2019-02-18T07:08:43.272Z,79.23
2019-02-18T07:11:13.985Z,93.20
2019-02-18T07:13:43.083Z,74.30
2019-02-18T07:16:12.162Z,78.10
2019-02-18T07:18:41.262Z,78.97
2019-02-18T07:21:10.633Z,72.70
2019-02-18T07:23:39.737Z,69.53
2019-02-18T07:26:08.813Z,59.33
2019-02-18T07:28:37.961Z,77.03
2019-02-18T07:31:07.052Z,69.47
2019-02-18T07:33:36.130Z,80.10
2019-02-18T07:36:05.509Z,74.43
2019-02-18T07:38:34.920Z,94.27
2019-02-18T07:41:03.977Z,95.67
2019-02-18T07:43:33.062Z,84.30
2019-02-18T07:46:02.216Z,88.80
2019-02-18T07:48:31.290Z,91.87
2019-02-18T07:51:00.344Z,88.30
2019-02-18T07:53:29.400Z,76.67
2019-02-18T07:55:58.463Z,82.30
2019-02-18T07:58:27.509Z,69.13
2019-02-18T08:00:56.879Z,66.27
2019-02-18T08:03:25.924Z,69.03
2019-02-18T08:05:55.011Z,63.00
2019-02-18T08:08:24.144Z,57.73
2019-02-18T08:10:53.219Z,59.07
2019-02-18T08:13:22.269Z,64.80
2019-02-18T08:15:51.323Z,56.83
2019-02-18T08:18:20.422Z,57.13
2019-02-18T08:20:49.464Z,58.70
2019-02-18T08:23:18.551Z,52.93
2019-02-18T08:25:47.593Z,53.70
2019-02-18T08:28:16.656Z,53.13
2019-02-18T08:30:45.906Z,50.87
2019-02-18T08:33:15.016Z,51.03
2019-02-18T08:35:44.064Z,48.73
2019-02-18T08:38:13.170Z,47.83
2019-02-18T08:40:42.221Z,58.50
2019-02-18T08:43:11.294Z,55.97
2019-02-18T08:45:40.353Z,48.73
2019-02-18T08:48:09.438Z,40.47
2019-02-18T08:50:38.492Z,46.73
2019-02-18T08:53:07.536Z,48.87
2019-02-18T08:55:36.585Z,51.37
2019-02-18T08:58:05.665Z,45.20
2019-02-18T09:00:34.716Z,49.90
2019-02-18T09:03:03.805Z,51.90
2019-02-18T09:05:32.880Z,44.27
2019-02-18T09:08:01.978Z,39.93
2019-02-18T09:10:33.834Z,47.80
2019-02-18T09:13:01.776Z,45.67
2019-02-18T09:15:30.824Z,40.37
2019-02-18T09:17:59.958Z,41.97
2019-02-18T09:20:29.008Z,39.03
2019-02-18T09:23:02.621Z,41.03
2019-02-18T09:25:33.625Z,37.80
2019-02-18T09:28:02.706Z,39.67
2019-02-18T09:30:33.438Z,38.63
2019-02-18T09:33:02.483Z,36.53
2019-02-18T09:35:31.540Z,43.17
2019-02-18T09:38:00.622Z,41.23
2019-02-18T09:40:30.517Z,42.43
2019-02-18T09:42:59.565Z,38.93
2019-02-18T09:45:28.793Z,36.50
2019-02-18T09:47:57.837Z,40.20
2019-02-18T09:50:26.880Z,42.87
2019-02-18T09:52:55.965Z,42.77
2019-02-18T09:55:25.306Z,44.17
2019-02-18T09:57:54.391Z,42.40
2019-02-18T10:00:42.870Z,40.53
2019-02-18T10:03:11.964Z,40.17
2019-02-18T10:05:41.097Z,35.13
2019-02-18T10:08:10.245Z,47.03
2019-02-18T10:10:39.331Z,44.27
2019-02-18T10:13:08.413Z,46.50
2019-02-18T10:15:37.460Z,43.07
2019-02-18T10:18:06.539Z,37.97
2019-02-18T10:20:35.592Z,42.30
2019-02-18T10:23:04.649Z,40.63
2019-02-18T10:25:33.760Z,40.50
2019-02-18T10:28:02.834Z,39.47
2019-02-18T10:30:31.885Z,43.93
2019-02-18T10:33:01.006Z,38.40
2019-02-18T10:35:30.125Z,37.07
2019-02-18T10:37:59.177Z,40.13
2019-02-18T10:40:28.269Z,40.63
2019-02-18T10:42:57.314Z,33.97
2019-02-18T10:45:26.390Z,34.23
2019-02-18T10:47:55.445Z,35.00
2019-02-18T10:50:24.602Z,32.97
2019-02-18T10:52:53.648Z,32.47
2019-02-18T10:55:23.004Z,31.50
2019-02-18T10:57:52.169Z,33.20
2019-02-18T11:00:21.246Z,32.77
2019-02-18T11:02:50.343Z,28.53
2019-02-18T11:05:19.430Z,28.90
2019-02-18T11:07:48.561Z,28.00
2019-02-18T11:10:18.127Z,26.10
2019-02-18T11:12:47.723Z,28.40
2019-02-18T11:15:17.054Z,25.37
2019-02-18T11:17:46.483Z,27.93
2019-02-18T11:20:15.547Z,26.83
2019-02-18T11:22:44.722Z,26.87
2019-02-18T11:25:14.978Z,25.00
2019-02-18T11:27:44.115Z,29.33
2019-02-18T11:30:17.443Z,25.63
2019-02-18T11:32:46.600Z,27.00
2019-02-18T11:35:15.765Z,26.97
2019-02-18T11:37:44.925Z,26.63
2019-02-18T11:40:16.296Z,28.23
2019-02-18T11:42:45.467Z,30.93
2019-02-18T11:45:15.777Z,26.90
2019-02-18T11:47:44.979Z,31.30
2019-02-18T11:50:14.870Z,31.07
2019-02-18T11:52:44.049Z,30.67
2019-02-18T11:55:13.837Z,33.00
2019-02-18T11:57:43.373Z,31.90
2019-02-18T12:00:16.173Z,30.03
2019-02-18T12:02:45.302Z,30.40
2019-02-18T12:05:14.432Z,30.17
2019-02-18T12:07:43.558Z,34.10
2019-02-18T12:10:13.664Z,30.27
2019-02-18T12:12:42.990Z,31.77
2019-02-18T12:15:15.673Z,32.77
2019-02-18T12:17:44.792Z,30.97
2019-02-18T12:20:17.161Z,27.37
2019-02-18T12:22:46.225Z,28.53
2019-02-18T12:25:15.335Z,42.87
2019-02-18T12:27:44.805Z,33.83
2019-02-18T12:30:15.419Z,33.50
2019-02-18T12:32:44.644Z,34.40
2019-02-18T12:35:13.783Z,35.33
2019-02-18T12:37:42.886Z,32.70
2019-02-18T12:40:14.990Z,34.63
2019-02-18T12:42:44.057Z,35.27
2019-02-18T12:45:13.226Z,30.23
2019-02-18T12:47:42.384Z,29.37
2019-02-18T12:50:12.283Z,32.87
2019-02-18T12:52:41.690Z,32.83
2019-02-18T12:55:14.363Z,33.33
2019-02-18T12:57:43.781Z,34.47
2019-02-18T13:00:15.659Z,41.00
2019-02-18T13:02:45.322Z,32.23
2019-02-18T13:05:14.650Z,38.40
2019-02-18T13:07:43.802Z,36.27
2019-02-18T13:10:13.784Z,39.10
2019-02-18T13:12:43.324Z,34.03
2019-02-18T13:15:16.660Z,32.30
2019-02-18T13:17:46.104Z,35.20
2019-02-18T13:20:15.261Z,39.00
2019-02-18T13:22:44.757Z,34.30
2019-02-18T13:25:13.833Z,35.13
2019-02-18T13:27:43.166Z,35.77
2019-02-18T13:30:20.110Z,31.30
2019-02-18T13:32:49.269Z,33.10
2019-02-18T13:35:18.770Z,36.13
2019-02-18T13:37:47.892Z,31.47
2019-02-18T13:40:16.986Z,35.03
2019-02-18T13:42:46.870Z,29.60
2019-02-18T13:45:16.027Z,30.60
2019-02-18T13:47:45.194Z,35.00
2019-02-18T13:50:14.623Z,32.10
2019-02-18T13:52:43.996Z,37.63
2019-02-18T13:55:13.500Z,30.10
2019-02-18T13:57:42.969Z,38.67
2019-02-18T14:00:18.552Z,35.60
2019-02-18T14:02:47.990Z,32.37
2019-02-18T14:05:18.060Z,33.80
2019-02-18T14:07:47.236Z,35.00
2019-02-18T14:10:16.819Z,37.27
2019-02-18T14:12:45.946Z,32.53
2019-02-18T14:15:16.414Z,31.13
2019-02-18T14:17:45.608Z,32.20
2019-02-18T14:20:15.949Z,32.17
2019-02-18T14:22:45.115Z,44.20
2019-02-18T14:25:14.601Z,36.43
2019-02-18T14:27:43.833Z,34.00
2019-02-18T14:30:16.961Z,38.07
2019-02-18T14:32:46.099Z,49.57
2019-02-18T14:35:17.396Z,31.97
2019-02-18T14:37:46.570Z,31.87
2019-02-18T14:40:17.619Z,35.67
2019-02-18T14:42:46.787Z,35.47
2019-02-18T14:45:16.385Z,30.33
2019-02-18T14:47:45.561Z,42.93
2019-02-18T14:50:17.608Z,40.60
2019-02-18T14:52:47.146Z,35.90
2019-02-18T14:55:16.305Z,34.53
2019-02-18T14:57:45.720Z,34.83
2019-02-18T15:00:18.449Z,32.87
2019-02-18T15:02:47.660Z,33.47
2019-02-18T15:05:16.767Z,33.97
2019-02-18T15:07:46.520Z,29.57
2019-02-18T15:10:15.956Z,29.77
2019-02-18T15:12:45.116Z,29.53
2019-02-18T15:15:14.251Z,35.30
2019-02-18T15:17:43.300Z,28.60
2019-02-18T15:20:12.760Z,33.10
2019-02-18T15:22:42.137Z,30.77
2019-02-18T15:25:11.429Z,35.37
2019-02-18T15:27:40.528Z,27.57
2019-02-18T15:30:13.342Z,33.00
2019-02-18T15:32:42.405Z,31.53
2019-02-18T15:35:11.508Z,32.37
2019-02-18T15:37:40.643Z,30.23
2019-02-18T15:40:10.469Z,31.40
2019-02-18T15:42:42.178Z,28.50
2019-02-18T15:45:10.416Z,39.63
2019-02-18T15:47:39.653Z,29.73
2019-02-18T15:50:11.049Z,38.17
2019-02-18T15:52:40.217Z,34.73
2019-02-18T15:55:09.746Z,43.50
2019-02-18T15:57:38.829Z,51.97
2019-02-18T16:00:13.880Z,43.73
2019-02-18T16:02:43.044Z,48.63
2019-02-18T16:05:13.838Z,45.83
2019-02-18T16:07:42.969Z,44.17
2019-02-18T16:10:12.136Z,41.77
2019-02-18T16:12:41.264Z,42.30
2019-02-18T16:15:11.389Z,51.80
2019-02-18T16:17:40.841Z,53.63
2019-02-18T16:20:12.044Z,42.23
2019-02-18T16:22:41.134Z,41.63
2019-02-18T16:25:16.085Z,40.93
2019-02-18T16:27:45.253Z,49.67
2019-02-18T16:30:15.082Z,47.00
2019-02-18T16:32:44.546Z,47.83
2019-02-18T16:35:16.790Z,48.63
2019-02-18T16:37:45.916Z,53.10
2019-02-18T16:40:17.670Z,49.63
2019-02-18T16:42:46.814Z,60.70
2019-02-18T16:45:15.967Z,56.03
2019-02-18T16:47:45.109Z,63.63
2019-02-18T16:50:14.264Z,60.00
2019-02-18T16:52:43.416Z,57.80
2019-02-18T16:55:14.057Z,82.47
2019-02-18T16:57:43.137Z,63.40
2019-02-18T17:00:16.772Z,63.70
2019-02-18T17:02:45.925Z,76.43
2019-02-18T17:05:15.080Z,69.57
2019-02-18T17:07:44.308Z,75.13
2019-02-18T17:10:13.639Z,68.13
2019-02-18T17:12:43.126Z,61.70
2019-02-18T17:15:13.064Z,69.63
2019-02-18T17:17:42.209Z,69.07
2019-02-18T17:20:11.301Z,67.17
2019-02-18T17:22:40.559Z,64.27
2019-02-18T17:25:11.388Z,66.53
2019-02-18T17:27:40.489Z,57.50
2019-02-18T17:30:12.456Z,58.30
2019-02-18T17:32:41.584Z,51.90
2019-02-18T17:35:14.638Z,58.77
2019-02-18T17:37:43.793Z,60.03
2019-02-18T17:40:13.853Z,59.97
2019-02-18T17:42:43.285Z,46.90
2019-02-18T17:45:17.078Z,46.20
2019-02-18T17:47:46.204Z,47.17
2019-02-18T17:50:16.133Z,56.53
2019-02-18T17:52:45.969Z,45.23
2019-02-18T17:55:19.132Z,47.60
2019-02-18T17:57:48.307Z,49.20
2019-02-18T18:00:21.587Z,46.20
2019-02-18T18:02:51.245Z,52.30
2019-02-18T18:05:20.398Z,50.27
2019-02-18T18:07:49.516Z,46.43
2019-02-18T18:10:18.983Z,46.80
2019-02-18T18:12:48.101Z,53.63
2019-02-18T18:15:18.814Z,48.87
2019-02-18T18:17:47.977Z,50.63
2019-02-18T18:20:17.153Z,40.10
2019-02-18T18:22:46.307Z,44.17
2019-02-18T18:25:15.860Z,37.30
2019-02-18T18:27:45.001Z,37.83
2019-02-18T18:30:18.798Z,40.13
2019-02-18T18:32:47.968Z,40.43
2019-02-18T18:35:17.402Z,38.30
2019-02-18T18:37:46.527Z,40.80
2019-02-18T18:40:19.420Z,39.90
2019-02-18T18:42:48.550Z,47.67
2019-02-18T18:45:17.907Z,37.83
2019-02-18T18:47:47.062Z,50.93
2019-02-18T18:50:21.069Z,50.07
2019-02-18T18:52:50.291Z,43.57
2019-02-18T18:55:19.386Z,45.70
2019-02-18T18:57:48.500Z,45.20
2019-02-18T19:00:24.208Z,44.93
2019-02-18T19:02:53.431Z,48.57
2019-02-18T19:05:22.987Z,45.77
2019-02-18T19:07:52.108Z,44.57
2019-02-18T19:10:21.237Z,42.17
2019-02-18T19:12:50.406Z,48.60
2019-02-18T19:15:19.596Z,48.40
2019-02-18T19:17:48.716Z,46.30
2019-02-18T19:20:17.890Z,39.70
2019-02-18T19:22:47.048Z,42.27
2019-02-18T19:25:16.206Z,42.37
2019-02-18T19:27:45.356Z,47.07
2019-02-18T19:30:26.863Z,47.77
2019-02-18T19:32:55.986Z,55.80
2019-02-18T19:35:25.044Z,45.60
2019-02-18T19:37:54.216Z,63.50
2019-02-18T19:40:23.408Z,47.87
2019-02-18T19:42:52.798Z,51.83
2019-02-18T19:45:25.334Z,52.20
2019-02-18T19:47:54.515Z,59.50
2019-02-18T19:50:23.615Z,59.50
2019-02-18T19:52:53.698Z,61.87
2019-02-18T19:55:22.849Z,61.53
2019-02-18T19:57:51.936Z,58.37
2019-02-18T20:00:21.562Z,55.70
2019-02-18T20:02:50.734Z,54.27
2019-02-18T20:05:19.826Z,57.23
2019-02-18T20:07:49.134Z,50.97
2019-02-18T20:10:18.260Z,45.73
2019-02-18T20:12:47.354Z,57.53
2019-02-18T20:15:16.437Z,54.50
2019-02-18T20:17:45.586Z,53.70
2019-02-18T20:20:16.979Z,59.93
2019-02-18T20:22:46.186Z,55.23
2019-02-18T20:25:15.269Z,54.20
2019-02-18T20:27:44.749Z,60.47
2019-02-18T20:30:15.471Z,60.53
2019-02-18T20:32:44.739Z,54.53
2019-02-18T20:35:14.079Z,59.87
2019-02-18T20:37:43.333Z,67.83
2019-02-18T20:40:12.536Z,62.03
2019-02-18T20:42:42.520Z,53.57
2019-02-18T20:45:12.491Z,57.40
2019-02-18T20:47:41.674Z,55.93
2019-02-18T20:50:12.536Z,58.57
2019-02-18T20:52:41.675Z,62.90
2019-02-18T20:55:14.734Z,52.73
2019-02-18T20:57:43.915Z,58.63
2019-02-18T21:00:21.633Z,63.03
2019-02-18T21:02:50.784Z,62.73
2019-02-18T21:05:19.861Z,65.93
2019-02-18T21:07:49.018Z,55.73
2019-02-18T21:10:20.285Z,66.83
2019-02-18T21:12:49.469Z,59.97
2019-02-18T21:15:18.615Z,57.90
2019-02-18T21:17:48.365Z,62.73
2019-02-18T21:20:17.701Z,68.63
2019-02-18T21:22:47.286Z,62.80
2019-02-18T21:25:16.495Z,62.70
2019-02-18T21:27:45.670Z,61.90
2019-02-18T21:30:18.871Z,53.77
2019-02-18T21:32:47.984Z,62.77
2019-02-18T21:35:17.148Z,55.30
2019-02-18T21:37:46.568Z,61.97
2019-02-18T21:40:15.758Z,55.97
2019-02-18T21:42:46.718Z,65.20
2019-02-18T21:45:16.179Z,54.30
2019-02-18T21:47:45.357Z,67.23
2019-02-18T21:50:14.533Z,68.73
2019-02-18T21:52:43.835Z,55.43
2019-02-18T21:55:13.085Z,60.67
2019-02-18T21:57:42.276Z,54.77
2019-02-18T22:00:18.673Z,55.20
2019-02-18T22:02:48.000Z,50.83
2019-02-18T22:05:17.469Z,62.30
2019-02-18T22:07:46.646Z,56.33
2019-02-18T22:10:15.818Z,55.97
2019-02-18T22:12:44.995Z,55.30
2019-02-18T22:15:14.778Z,57.00
2019-02-18T22:17:43.936Z,51.23
2019-02-18T22:20:14.088Z,52.97
2019-02-18T22:22:43.245Z,47.40
2019-02-18T22:25:13.428Z,50.73
2019-02-18T22:27:42.592Z,56.67
2019-02-18T22:30:15.935Z,52.83
2019-02-18T22:32:45.107Z,55.20
2019-02-18T22:35:15.215Z,54.67
2019-02-18T22:37:44.402Z,53.53
2019-02-18T22:40:13.753Z,48.93
2019-02-18T22:42:42.918Z,52.37
2019-02-18T22:45:12.236Z,50.47
2019-02-18T22:47:41.316Z,54.67
2019-02-18T22:50:11.366Z,54.13
2019-02-18T22:52:40.621Z,55.67
2019-02-18T22:55:10.845Z,55.90
2019-02-18T22:57:40.001Z,48.33
2019-02-18T23:00:25.468Z,51.13
2019-02-18T23:02:54.976Z,51.17
2019-02-18T23:05:24.090Z,54.07
2019-02-18T23:07:53.270Z,53.47
2019-02-18T23:10:22.420Z,55.53
2019-02-18T23:12:51.856Z,55.33
2019-02-18T23:15:21.282Z,50.10
2019-02-18T23:17:50.427Z,50.37
2019-02-18T23:20:19.505Z,48.37
2019-02-18T23:22:48.592Z,55.23
2019-02-18T23:25:17.714Z,49.27
2019-02-18T23:27:46.895Z,51.83
2019-02-18T23:30:16.082Z,49.50
2019-02-18T23:32:45.255Z,54.83
2019-02-18T23:35:14.647Z,51.63
2019-02-18T23:37:43.846Z,47.87
2019-02-18T23:40:13.008Z,55.20
2019-02-18T23:42:42.157Z,51.93
2019-02-18T23:45:11.228Z,60.77
2019-02-18T23:47:42.296Z,51.90
2019-02-18T23:50:11.418Z,50.77
2019-02-18T23:52:40.602Z,48.63
2019-02-18T23:55:09.773Z,49.77
2019-02-18T23:57:38.965Z,44.47
